Hovedside
METAR-TAF:

METAR-TAF

Lufthavner :

Kolding, Danmark

Vamdrup

breddegrad: 55-26N, lengdegrad: 009-20E, høyde over havet: 44 m

Gjeldene værobservasjon

Denne rapporten ble laget for 23 minutter siden, klokken 20:20 UTC
Vind 10 kt fra Vest
Temperatur 5°C
Luftfuktighet 100%
Trykk 1027 hPa

METAR: EKVD 262020Z AUTO 27010KT //// ///////// 05/05 Q1027

Tid: 22:43 (20:43 UTC)

Varsel

Denne rapporten ble laget for 6 timer og 41 minutter siden, klokken 14:02 UTC
Varsel gyldig fra 26. klokken 14 UTC til 26. klokken 15 UTC
Vind 5 kt fra Vest
Sikt: 2500 m
Brutte skyer i en høyde av 200 ft
dis
Midlertidig
fra 26. klokken 14 UTC til 26. klokken 15 UTC
Sikt 10 km eller mer
Spredte skyer i en høyde av 300 ft

TAF: EKVD 261402Z 2614/2615 26005KT 2500 BR BKN002 TEMPO 2614/2615 9999 NSW SCT003

Værobservasjoner og værvarsel for over 4000 flyplasser (METAR- og TAF-rapporter).

Tilgjengelige stasjoner er representert av de røde og gule prikkene på kartet.

Hold musepekeren over prikken for å se navnet på stasjonen.

Klikk så for å se værobservasjoner og -varsler.

For å forandre kartet kan du klikke på den grønne knappen med svart kryss for å zoome inn, på den grønne knappen med strek for å zoome ut, eller på de grønne pilene for å se tilstøtende kart.


METAR-TAF: